Friday, February 27, 2015, 8:06 AM EST

KTHV, York Airport

Location: Spring Grove, PA, United States Lat: 39.917
Local Time: 8:06 AM EST (13:06 GMT) Lon: -76.883
Time Zone: US/Eastern Elev: 478 ft

Show me the last for .
Show Decoded

2015-02-27 07:53 METAR KTHV 271253Z AUTO 33006KT 10SM OVC039 M07/M13 A3037 RMK AO2 SLP293
                 T10721128 =
2015-02-27 06:53 METAR KTHV 271153Z AUTO 36005KT 10SM OVC035 M07/M12 A3032 RMK AO2 SNE1056 SLP277
                 P0000 60000 T10721117 11033 21072 51037 =
2015-02-27 06:02 METAR KTHV 271102Z AUTO 34005KT 8SM OVC031 M07/M10 A3029 RMK AO2 SNE1056 P0000
                 T10671100 =
2015-02-27 05:53 METAR KTHV 271053Z AUTO 35007KT 5SM -SN OVC029 M07/M10 A3028 RMK AO2 SNE17B48
                 SLP264 P0000 T10671100 =
2015-02-27 04:53 METAR KTHV 270953Z AUTO 34007KT 5SM -SN OVC023 M05/M08 A3025 RMK AO2 SNB15
                 SLP252 P0000 T10501083 =
2015-02-27 03:53 METAR KTHV 270853Z AUTO 33005KT 10SM OVC022 M03/M09 A3021 RMK AO2 SLP236
                 T10331094 53019 =
2015-02-27 02:53 METAR KTHV 270753Z AUTO 00000KT 10SM BKN028 OVC034 M03/M08 A3018 RMK AO2 SLP228
                 T10331078 =
2015-02-27 01:53 METAR KTHV 270653Z AUTO 30003KT 10SM OVC029 M03/M08 A3017 RMK AO2 SLP225
                 T10331078 =
2015-02-27 00:53 METAR KTHV 270553Z AUTO 00000KT 10SM OVC028 M04/M07 A3015 RMK AO2 SLP218
                 T10391072 11033 21056 53013 =
2015-02-26 23:53 METAR KTHV 270453Z AUTO 00000KT 10SM OVC035 M04/M08 A3013 RMK AO2 SLP212
                 T10391078 400001056 =
2015-02-26 22:53 METAR KTHV 270353Z AUTO 00000KT 10SM OVC042 M04/M07 A3011 RMK AO2 SLP205
                 T10441072 =
2015-02-26 21:53 METAR KTHV 270253Z AUTO 00000KT 10SM OVC050 M04/M08 A3011 RMK AO2 SLP206
                 T10441083 51024 =
2015-02-26 20:53 METAR KTHV 270153Z AUTO 28003KT 10SM SCT050 M05/M08 A3009 RMK AO2 SLP200
                 T10501078 =
2015-02-26 19:53 METAR KTHV 270053Z AUTO 00000KT 10SM OVC055 M03/M08 A3007 RMK AO2 SLP191
                 T10331078 =
2015-02-26 18:53 METAR KTHV 262353Z AUTO 00000KT 10SM FEW043 SCT050 M04/M08 A3004 RMK AO2 SLP181
                 T10391078 10000 21039 53025 =
2015-02-26 17:53 METAR KTHV 262253Z AUTO 31003KT 10SM OVC090 M01/M08 A3000 RMK AO2 SLP165
                 T10111078 =
2015-02-26 16:53 METAR KTHV 262153Z AUTO 33006KT 10SM SCT060 OVC095 M01/M08 A2997 RMK AO2 SLP156
                 T10111083 =
2015-02-26 15:53 METAR KTHV 262053Z AUTO 00000KT 10SM FEW070 OVC085 00/M08 A2996 RMK AO2 SLP154
                 T00001083 53015 =
2015-02-26 14:53 METAR KTHV 261953Z AUTO 03007KT 10SM SCT080 M01/M08 A2994 RMK AO2 SLP147
                 T10061078 =
2015-02-26 13:53 METAR KTHV 261853Z AUTO 36005KT 10SM SCT100 M02/M08 A2992 RMK AO2 SLP141
                 T10171083 =
2015-02-26 12:53 METAR KTHV 261753Z AUTO 01008KT 10SM CLR M02/M09 A2992 RMK AO2 SLP140 60000
                 T10221094 11022 21056 56015 =
2015-02-26 11:53 METAR KTHV 261653Z AUTO 02008KT 10SM OVC090 M03/M11 A2993 RMK AO2 SLP142
                 T10331106 =
2015-02-26 10:53 METAR KTHV 261553Z AUTO 02007KT 10SM OVC090 M04/M11 A2995 RMK AO2 SLP151
                 T10391106 =
2015-02-26 09:53 METAR KTHV 261453Z AUTO 06007KT 10SM BKN039 OVC047 M04/M10 A2996 RMK AO2 SNE31
                 SLP156 P0000 60000 T10441100 51017 =
2015-02-26 09:23 METAR KTHV 261423Z AUTO 05008KT 5SM -SN BKN030 BKN038 OVC046 M05/M10 A2997 RMK
                 AO2 P0000 T10501100 =
2015-02-26 09:14 METAR KTHV 261414Z AUTO 04008KT 2 1/2SM -SN OVC024 M05/M09 A2997 RMK AO2 P0000
                 T10501094 =
2015-02-26 09:05 METAR KTHV 261405Z AUTO 06008KT 1 1/2SM -SN OVC024 M06/M10 A2997 RMK AO2 P0000
                 T10561100 =

Support USWX by starting your Amazon purchase here.